Aviation Digital Data Service (ADDS)

Output produced by METARs form (1837 UTC 25 September 2020)
found at http://www.aviationweather.gov/metar/data/
 
Forecast for: EGPF (GLASGOW AIRPORT , GB)
Text: TAF EGPF 251701Z 2518/2618 33012KT 9999 FEW040
Forecast period: 1800 UTC 25 September 2020 to 1800 UTC 26 September 2020
Forecast type: FROM: standard forecast or significant change
Winds: from the NNW (330 degrees) at 14 MPH (12 knots; 6.2 m/s)
Visibility: 6 or more miles (10+ km)
Ceiling: at least 12,000 feet AGL
Clouds: few clouds at 4000 feet AGL
Weather: no significant weather forecast for this period
Text: BECMG 2518/2521 27007KT
Forecast period: 1800 UTC 25 September 2020 to 0800 UTC 26 September 2020
Forecast type: BECOMING: Conditions expected to become as follows by 2100 UTC 25 September 2020
Winds: from the W (270 degrees) at 8 MPH (7 knots; 3.6 m/s)
Visibility: 6 or more miles (10+ km)
Ceiling: at least 12,000 feet AGL
Clouds: few clouds at 4000 feet AGL
Weather: no significant weather forecast for this period
Text: BECMG 2608/2611 36012KT
Forecast period: 0800 to 1800 UTC 26 September 2020
Forecast type: BECOMING: Conditions expected to become as follows by 1100 UTC 26 September 2020
Winds: from the N (360 degrees) at 14 MPH (12 knots; 6.2 m/s)
Visibility: 6 or more miles (10+ km)
Ceiling: at least 12,000 feet AGL
Clouds: few clouds at 4000 feet AGL
Weather: no significant weather forecast for this period